createdAt,value
2023-05-01T00:02:04.087Z,10.92
2023-05-01T00:04:30.607Z,10.88
2023-05-01T00:06:57.721Z,10.83
2023-05-01T00:09:24.149Z,10.80
2023-05-01T00:11:50.603Z,10.76
2023-05-01T00:14:17.875Z,10.73
2023-05-01T00:16:46.189Z,10.67
2023-05-01T00:19:12.951Z,10.63
2023-05-01T00:21:39.383Z,10.60
2023-05-01T00:24:06.076Z,10.57
2023-05-01T00:26:32.482Z,10.52
2023-05-01T00:28:58.888Z,10.48
2023-05-01T00:31:26.032Z,10.44
2023-05-01T00:33:52.724Z,10.42
2023-05-01T00:36:19.251Z,10.40
2023-05-01T00:38:46.362Z,10.35
2023-05-01T00:41:12.829Z,10.34
2023-05-01T00:43:39.268Z,10.31
2023-05-01T00:46:06.220Z,10.30
2023-05-01T00:48:32.716Z,10.27
2023-05-01T00:51:04.703Z,10.25
2023-05-01T00:53:31.218Z,10.22
2023-05-01T00:55:58.609Z,10.18
2023-05-01T01:06:09.042Z,10.05
2023-05-01T01:09:10.185Z,10.01
2023-05-01T01:11:46.461Z,9.96
2023-05-01T01:14:21.630Z,9.91
2023-05-01T01:16:57.099Z,9.88
2023-05-01T01:19:44.807Z,9.85
2023-05-01T01:22:18.701Z,9.82
2023-05-01T01:24:58.270Z,9.78
2023-05-01T01:27:54.673Z,9.74
2023-05-01T01:30:41.365Z,9.73
2023-05-01T01:33:32.950Z,9.71
2023-05-01T01:36:07.010Z,9.70
2023-05-01T01:38:43.568Z,9.65
2023-05-01T01:41:22.719Z,9.62
2023-05-01T01:44:07.882Z,9.61
2023-05-01T01:46:38.493Z,9.57
2023-05-01T01:49:15.984Z,9.56
2023-05-01T01:51:43.703Z,9.56
2023-05-01T01:54:15.105Z,9.53
2023-05-01T01:56:42.790Z,9.52
2023-05-01T01:59:11.056Z,9.50
2023-05-01T02:01:40.786Z,9.45
2023-05-01T02:04:08.712Z,9.43
2023-05-01T02:06:36.688Z,9.40
2023-05-01T02:09:06.474Z,9.38
2023-05-01T02:11:35.491Z,9.36
2023-05-01T02:14:03.711Z,9.35
2023-05-01T02:16:32.897Z,9.33
2023-05-01T02:19:00.840Z,9.31
2023-05-01T02:21:31.086Z,9.30
2023-05-01T02:24:01.408Z,9.26
2023-05-01T02:26:29.605Z,9.23
2023-05-01T02:28:56.064Z,9.22
2023-05-01T02:31:23.146Z,9.20
2023-05-01T02:33:49.830Z,9.18
2023-05-01T02:36:16.287Z,9.18
2023-05-01T02:38:43.168Z,9.17
2023-05-01T02:41:11.910Z,9.17
2023-05-01T02:43:40.229Z,9.16
2023-05-01T02:46:07.831Z,9.14
2023-05-01T02:48:35.254Z,9.14
2023-05-01T02:51:03.582Z,9.14
2023-05-01T02:53:30.929Z,9.15
2023-05-01T02:55:57.721Z,9.15
2023-05-01T02:58:24.535Z,9.15
2023-05-01T03:00:51.107Z,9.14
2023-05-01T03:03:17.947Z,9.14
2023-05-01T03:05:44.508Z,9.16
2023-05-01T03:08:11.200Z,9.17
2023-05-01T03:10:40.098Z,9.17
2023-05-01T03:13:06.640Z,9.19
2023-05-01T03:15:33.119Z,9.20
2023-05-01T03:17:59.581Z,9.22
2023-05-01T03:20:27.439Z,9.22
2023-05-01T03:22:54.086Z,9.27
2023-05-01T03:25:20.517Z,9.29
2023-05-01T03:27:47.019Z,9.31
2023-05-01T03:30:13.471Z,9.32
2023-05-01T03:32:40.017Z,9.33
2023-05-01T03:35:07.816Z,9.32
2023-05-01T03:37:34.319Z,9.33
2023-05-01T03:40:01.060Z,9.36
2023-05-01T03:42:27.650Z,9.36
2023-05-01T03:44:54.100Z,9.37
2023-05-01T03:47:20.558Z,9.38
2023-05-01T03:49:47.513Z,9.39
2023-05-01T03:52:14.902Z,9.39
2023-05-01T03:54:41.381Z,9.37
2023-05-01T03:57:07.892Z,9.36
2023-05-01T03:59:35.374Z,9.37
2023-05-01T04:02:01.901Z,9.37
2023-05-01T04:04:29.763Z,9.39
2023-05-01T04:06:56.609Z,9.39
2023-05-01T04:09:23.018Z,9.41
2023-05-01T04:11:49.447Z,9.41
2023-05-01T04:14:15.888Z,9.41
2023-05-01T04:16:43.211Z,9.40
2023-05-01T04:19:10.358Z,9.41
2023-05-01T04:21:36.877Z,9.43
2023-05-01T04:24:03.364Z,9.42
2023-05-01T04:26:29.838Z,9.41
2023-05-01T04:28:56.455Z,9.41
2023-05-01T04:31:22.935Z,9.41
2023-05-01T04:33:49.346Z,9.42
2023-05-01T04:36:16.031Z,9.43
2023-05-01T04:38:42.512Z,9.44
2023-05-01T04:41:09.386Z,9.45
2023-05-01T04:43:35.852Z,9.44
2023-05-01T04:46:04.610Z,9.41
2023-05-01T04:48:31.030Z,9.42
2023-05-01T04:50:57.625Z,9.43
2023-05-01T04:53:24.113Z,9.43
2023-05-01T04:55:50.736Z,9.44
2023-05-01T04:58:17.147Z,9.46
2023-05-01T05:00:43.576Z,9.48
2023-05-01T05:03:10.197Z,9.49
2023-05-01T05:05:36.722Z,9.49
2023-05-01T05:08:03.148Z,9.50
2023-05-01T05:10:29.615Z,9.51
2023-05-01T05:12:56.898Z,9.53
2023-05-01T05:15:23.308Z,9.56
2023-05-01T05:17:49.792Z,9.59
2023-05-01T05:20:16.434Z,9.60
2023-05-01T05:22:43.037Z,9.63
2023-05-01T05:25:09.556Z,9.66
2023-05-01T05:27:38.327Z,9.69
2023-05-01T05:30:06.013Z,9.72
2023-05-01T05:32:32.834Z,9.74
2023-05-01T05:34:59.667Z,9.77
2023-05-01T05:37:26.195Z,9.80
2023-05-01T05:39:53.231Z,9.84
2023-05-01T05:42:20.108Z,9.86
2023-05-01T05:44:46.535Z,9.87
2023-05-01T05:47:12.963Z,9.89
2023-05-01T05:49:39.500Z,9.89
2023-05-01T05:52:05.978Z,9.89
2023-05-01T05:54:32.581Z,9.92
2023-05-01T05:56:58.980Z,9.96
2023-05-01T05:59:25.473Z,9.98
2023-05-01T06:01:52.590Z,10.02
2023-05-01T06:04:19.081Z,10.04
2023-05-01T06:06:45.620Z,10.04
2023-05-01T06:09:12.939Z,10.07
2023-05-01T06:11:39.419Z,10.11
2023-05-01T06:14:05.929Z,10.14
2023-05-01T06:16:32.709Z,10.16
2023-05-01T06:18:59.274Z,10.21
2023-05-01T06:21:25.781Z,10.26
2023-05-01T06:23:52.386Z,10.32
2023-05-01T06:26:18.944Z,10.37
2023-05-01T06:28:45.375Z,10.43
2023-05-01T06:31:11.783Z,10.49
2023-05-01T06:33:38.276Z,10.55
2023-05-01T06:36:05.000Z,10.62
2023-05-01T06:38:32.912Z,10.68
2023-05-01T06:40:59.370Z,10.75
2023-05-01T06:43:30.832Z,10.80
2023-05-01T06:45:57.627Z,10.84
2023-05-01T06:48:24.101Z,10.88
2023-05-01T06:50:50.745Z,10.91
2023-05-01T06:53:17.200Z,10.94
2023-05-01T06:55:43.605Z,10.99
2023-05-01T06:58:22.626Z,11.01
2023-05-01T07:00:50.476Z,11.03
2023-05-01T07:03:17.172Z,11.07
2023-05-01T07:05:43.752Z,11.12
2023-05-01T07:08:10.483Z,11.15
2023-05-01T07:10:37.542Z,11.19
2023-05-01T07:13:05.160Z,11.25
2023-05-01T07:15:31.745Z,11.28
2023-05-01T07:17:58.410Z,11.30
2023-05-01T07:20:24.928Z,11.32
2023-05-01T07:22:51.311Z,11.38
2023-05-01T07:25:17.930Z,11.44
2023-05-01T07:27:44.376Z,11.48
2023-05-01T07:30:11.281Z,11.55
2023-05-01T07:32:37.888Z,11.59
2023-05-01T07:35:05.054Z,11.63
2023-05-01T07:37:31.484Z,11.71
2023-05-01T07:39:58.822Z,11.76
2023-05-01T07:42:27.506Z,11.82
2023-05-01T07:44:53.931Z,11.86
2023-05-01T07:47:20.388Z,11.91
2023-05-01T07:49:46.794Z,11.93
2023-05-01T07:52:13.408Z,11.97
2023-05-01T07:54:40.246Z,11.98
2023-05-01T07:57:06.732Z,11.98
2023-05-01T07:59:33.161Z,11.96
2023-05-01T08:01:59.751Z,11.99
2023-05-01T08:04:27.863Z,12.00
2023-05-01T08:06:54.476Z,12.02
2023-05-01T08:09:21.026Z,12.06
2023-05-01T08:11:47.399Z,12.12
2023-05-01T08:14:13.833Z,12.14
2023-05-01T08:16:40.328Z,12.19
2023-05-01T08:19:06.870Z,12.23
2023-05-01T08:21:33.319Z,12.29
2023-05-01T08:23:59.917Z,12.31
2023-05-01T08:26:26.362Z,12.34
2023-05-01T08:28:52.854Z,12.34
2023-05-01T08:31:19.483Z,12.37
2023-05-01T08:33:46.140Z,12.41
2023-05-01T08:36:12.641Z,12.45
2023-05-01T08:38:39.143Z,12.49
2023-05-01T08:41:06.278Z,12.50
2023-05-01T08:43:33.377Z,12.52
2023-05-01T08:46:04.112Z,12.58
2023-05-01T08:48:32.618Z,12.59
2023-05-01T08:51:00.631Z,12.60
2023-05-01T08:53:28.583Z,12.63
2023-05-01T08:55:56.641Z,12.63
2023-05-01T08:58:24.832Z,12.64
2023-05-01T09:00:51.510Z,12.65
2023-05-01T09:03:19.311Z,12.69
2023-05-01T09:05:46.733Z,12.73
2023-05-01T09:08:13.160Z,12.79
2023-05-01T09:10:45.187Z,12.87
2023-05-01T09:13:12.471Z,12.91
2023-05-01T09:15:38.958Z,12.96
2023-05-01T09:18:05.662Z,13.01
2023-05-01T09:20:32.669Z,13.10
2023-05-01T09:22:59.292Z,13.21
2023-05-01T09:25:25.871Z,13.32
2023-05-01T09:27:52.646Z,13.42
2023-05-01T09:30:36.536Z,13.47
2023-05-01T09:33:10.370Z,13.62
2023-05-01T09:35:54.363Z,13.75
2023-05-01T09:38:23.011Z,13.86
2023-05-01T09:40:50.085Z,13.89
2023-05-01T09:43:30.292Z,13.95
2023-05-01T09:46:09.552Z,14.08
2023-05-01T09:48:37.596Z,14.23
2023-05-01T09:51:23.925Z,14.31
2023-05-01T09:53:52.218Z,14.41
2023-05-01T09:56:19.755Z,14.54
2023-05-01T09:58:46.757Z,14.64
2023-05-01T10:01:13.355Z,14.64
2023-05-01T10:03:40.205Z,14.71
2023-05-01T10:06:07.224Z,14.77
2023-05-01T10:08:50.598Z,14.87
2023-05-01T10:11:17.119Z,14.94
2023-05-01T10:13:43.610Z,14.96
2023-05-01T10:16:29.760Z,15.03
2023-05-01T10:19:00.082Z,15.05
2023-05-01T10:21:27.868Z,15.12
2023-05-01T10:23:55.739Z,15.22
2023-05-01T10:26:22.219Z,15.31
2023-05-01T10:28:49.556Z,15.33
2023-05-01T10:31:16.663Z,15.38
2023-05-01T10:33:46.999Z,15.46
2023-05-01T10:36:22.619Z,15.54
2023-05-01T10:38:49.207Z,15.56
2023-05-01T10:41:16.577Z,15.56
2023-05-01T10:43:43.634Z,15.64
2023-05-01T10:46:10.128Z,15.77
2023-05-01T10:48:40.079Z,15.90
2023-05-01T10:51:17.860Z,15.95
2023-05-01T10:53:46.365Z,15.99
2023-05-01T10:56:23.838Z,16.03
2023-05-01T10:58:53.280Z,16.12
2023-05-01T11:01:35.090Z,16.18
2023-05-01T11:04:23.515Z,16.21
2023-05-01T11:07:03.745Z,16.30
2023-05-01T11:09:44.195Z,16.35
2023-05-01T11:12:12.978Z,16.29
2023-05-01T11:14:55.787Z,16.25
2023-05-01T11:17:40.960Z,16.28
2023-05-01T11:20:29.124Z,16.33
2023-05-01T11:22:57.337Z,16.32
2023-05-01T11:25:24.485Z,16.30
2023-05-01T11:27:53.033Z,16.32
2023-05-01T11:30:20.268Z,16.41
2023-05-01T11:32:48.769Z,16.50
2023-05-01T11:35:29.825Z,16.59
2023-05-01T11:37:56.498Z,16.62
2023-05-01T11:40:24.898Z,16.66
2023-05-01T11:43:00.211Z,16.70
2023-05-01T11:45:26.934Z,16.79
2023-05-01T11:47:53.680Z,16.89
2023-05-01T11:50:21.942Z,17.01
2023-05-01T11:52:50.056Z,17.11
2023-05-01T11:55:16.881Z,17.24
2023-05-01T11:57:53.409Z,17.32
2023-05-01T12:00:31.000Z,17.63
2023-05-01T12:02:59.426Z,17.86
2023-05-01T12:05:28.379Z,17.91
2023-05-01T12:08:13.147Z,18.08
2023-05-01T12:10:43.088Z,18.26
2023-05-01T12:13:12.192Z,18.34
2023-05-01T12:15:52.475Z,18.30
2023-05-01T12:18:21.336Z,18.28
2023-05-01T12:20:51.991Z,18.42
2023-05-01T12:23:20.381Z,18.19
2023-05-01T12:25:47.030Z,18.06
2023-05-01T12:28:15.735Z,17.87
2023-05-01T12:30:43.432Z,17.76
2023-05-01T12:33:14.716Z,17.58
2023-05-01T12:35:42.458Z,17.34
2023-05-01T12:38:12.846Z,17.18
2023-05-01T12:41:00.593Z,17.02
2023-05-01T12:43:32.272Z,17.02
2023-05-01T12:45:59.395Z,16.94
2023-05-01T12:48:26.302Z,16.91
2023-05-01T12:50:54.973Z,16.98
2023-05-01T12:53:26.290Z,17.00
2023-05-01T12:55:55.243Z,17.03
2023-05-01T12:58:22.107Z,16.95
2023-05-01T13:00:54.645Z,16.82
2023-05-01T13:03:26.894Z,16.78
2023-05-01T13:06:04.036Z,16.78
2023-05-01T13:08:32.789Z,16.71
2023-05-01T13:11:01.343Z,16.67
2023-05-01T13:13:30.636Z,16.58
2023-05-01T13:16:12.286Z,16.59
2023-05-01T13:18:57.236Z,16.56
2023-05-01T13:21:24.920Z,16.43
2023-05-01T13:24:01.317Z,16.35
2023-05-01T13:26:35.959Z,16.30
2023-05-01T13:29:04.016Z,16.28
2023-05-01T13:31:30.853Z,16.17
2023-05-01T13:33:59.402Z,16.16
2023-05-01T13:36:27.510Z,16.07
2023-05-01T13:38:56.999Z,16.07
2023-05-01T13:41:26.051Z,16.06
2023-05-01T13:43:54.253Z,15.99
2023-05-01T13:46:22.934Z,16.07
2023-05-01T13:48:49.674Z,16.16
2023-05-01T13:51:24.038Z,16.15
2023-05-01T13:53:53.482Z,16.13
2023-05-01T13:56:21.861Z,16.14
2023-05-01T13:58:50.101Z,16.17
2023-05-01T14:01:19.009Z,16.17
2023-05-01T14:03:45.952Z,16.20
2023-05-01T14:06:17.882Z,16.18
2023-05-01T14:08:46.768Z,16.27
2023-05-01T14:11:13.802Z,16.33
2023-05-01T14:13:41.543Z,16.35
2023-05-01T14:16:12.254Z,16.43
2023-05-01T14:18:46.067Z,16.49
2023-05-01T14:21:14.888Z,16.64
2023-05-01T14:23:44.300Z,16.78
2023-05-01T14:26:17.058Z,16.86
2023-05-01T14:28:44.629Z,17.00
2023-05-01T14:31:17.298Z,17.20
2023-05-01T14:33:44.030Z,17.33
2023-05-01T14:36:12.434Z,17.55
2023-05-01T14:38:40.417Z,17.78
2023-05-01T14:41:08.337Z,17.83
2023-05-01T14:43:41.625Z,17.89
2023-05-01T14:46:08.261Z,17.99
2023-05-01T14:48:36.465Z,18.10
2023-05-01T14:51:10.496Z,18.22
2023-05-01T14:53:37.556Z,18.24
2023-05-01T14:56:04.348Z,18.31
2023-05-01T14:58:30.857Z,18.21
2023-05-01T15:00:57.507Z,17.97
2023-05-01T15:03:24.138Z,17.78
2023-05-01T15:05:50.933Z,17.71
2023-05-01T15:08:17.454Z,17.66
2023-05-01T15:10:45.025Z,17.71
2023-05-01T15:13:11.488Z,17.89
2023-05-01T15:15:37.998Z,17.89
2023-05-01T15:18:04.467Z,17.85
2023-05-01T15:20:31.338Z,17.82
2023-05-01T15:22:57.766Z,17.98
2023-05-01T15:25:24.221Z,18.07
2023-05-01T15:27:51.408Z,18.11
2023-05-01T15:30:17.870Z,18.09
2023-05-01T15:32:44.635Z,18.19
2023-05-01T15:35:11.189Z,18.23
2023-05-01T15:37:37.627Z,18.22
2023-05-01T15:40:05.457Z,18.16
2023-05-01T15:42:31.929Z,18.19
2023-05-01T15:44:58.829Z,18.21
2023-05-01T15:47:25.887Z,18.29
2023-05-01T15:49:52.326Z,18.28
2023-05-01T15:52:18.801Z,18.25
2023-05-01T15:54:48.311Z,18.08
2023-05-01T15:57:17.749Z,17.97
2023-05-01T15:59:44.756Z,17.78
2023-05-01T16:02:11.299Z,17.59
2023-05-01T16:04:38.870Z,17.43
2023-05-01T16:07:06.248Z,17.31
2023-05-01T16:09:34.486Z,17.18
2023-05-01T16:12:03.365Z,17.13
2023-05-01T16:14:31.104Z,17.04
2023-05-01T16:16:57.724Z,16.99
2023-05-01T16:19:24.160Z,16.95
2023-05-01T16:21:50.640Z,16.90
2023-05-01T16:24:17.276Z,16.82
2023-05-01T16:26:44.253Z,16.80
2023-05-01T16:29:10.802Z,16.79
2023-05-01T16:31:47.373Z,16.71
2023-05-01T16:34:15.387Z,16.73
2023-05-01T16:36:42.822Z,16.81
2023-05-01T16:39:22.263Z,16.82
2023-05-01T16:41:50.898Z,16.86
2023-05-01T16:44:19.282Z,16.81
2023-05-01T16:46:57.307Z,16.69
2023-05-01T16:49:24.926Z,16.59
2023-05-01T16:51:54.869Z,16.54
2023-05-01T16:54:21.596Z,16.41
2023-05-01T16:56:48.237Z,16.32
2023-05-01T16:59:15.811Z,16.26
2023-05-01T17:01:42.393Z,16.18
2023-05-01T17:04:08.901Z,16.11
2023-05-01T17:06:35.556Z,16.05
2023-05-01T17:09:02.210Z,16.05
2023-05-01T17:11:31.118Z,16.06
2023-05-01T17:13:58.319Z,16.07
2023-05-01T17:16:24.929Z,16.09
2023-05-01T17:18:51.564Z,16.13
2023-05-01T17:21:18.604Z,16.17
2023-05-01T17:23:45.362Z,16.20
2023-05-01T17:26:13.430Z,16.32
2023-05-01T17:28:39.913Z,16.42
2023-05-01T17:31:06.369Z,16.44
2023-05-01T17:33:32.909Z,16.39
2023-05-01T17:36:00.706Z,16.37
2023-05-01T17:38:27.242Z,16.34
2023-05-01T17:40:53.690Z,16.25
2023-05-01T17:43:20.761Z,16.24
2023-05-01T17:45:47.953Z,16.13
2023-05-01T17:48:14.492Z,16.09
2023-05-01T17:50:41.386Z,16.02
2023-05-01T17:53:09.411Z,15.93
2023-05-01T17:55:37.039Z,15.93
2023-05-01T17:58:03.444Z,15.83
2023-05-01T18:00:32.390Z,15.80
2023-05-01T18:02:59.254Z,15.73
2023-05-01T18:05:26.114Z,15.73
2023-05-01T18:07:52.510Z,15.75
2023-05-01T18:10:18.984Z,15.70
2023-05-01T18:12:47.024Z,15.59
2023-05-01T18:15:14.698Z,15.57
2023-05-01T18:17:43.935Z,15.61
2023-05-01T18:20:10.857Z,15.51
2023-05-01T18:22:37.581Z,15.41
2023-05-01T18:25:05.355Z,15.33
2023-05-01T18:27:32.074Z,15.26
2023-05-01T18:29:58.828Z,15.22
2023-05-01T18:32:35.874Z,15.16
2023-05-01T18:35:06.365Z,15.14
2023-05-01T18:37:33.099Z,15.11
2023-05-01T18:40:00.278Z,15.10
2023-05-01T18:42:27.000Z,15.05
2023-05-01T18:44:56.683Z,15.02
2023-05-01T18:47:23.208Z,15.00
2023-05-01T18:49:49.650Z,14.93
2023-05-01T18:52:16.070Z,14.88
2023-05-01T18:54:42.494Z,14.78
2023-05-01T18:57:08.902Z,14.73
2023-05-01T18:59:35.354Z,14.70
2023-05-01T19:02:03.084Z,14.66
2023-05-01T19:04:30.887Z,14.64
2023-05-01T19:06:57.435Z,14.60
2023-05-01T19:09:23.895Z,14.55
2023-05-01T19:11:50.431Z,14.50
2023-05-01T19:14:16.924Z,14.45
2023-05-01T19:16:43.488Z,14.41
2023-05-01T19:19:10.476Z,14.34
2023-05-01T19:21:36.898Z,14.29
2023-05-01T19:24:03.394Z,14.20
2023-05-01T19:26:29.851Z,14.19
2023-05-01T19:28:56.293Z,14.12
2023-05-01T19:31:25.092Z,14.08
2023-05-01T19:33:53.723Z,14.05
2023-05-01T19:36:21.190Z,13.96
2023-05-01T19:38:47.784Z,13.92
2023-05-01T19:41:14.420Z,13.91
2023-05-01T19:43:40.873Z,13.87
2023-05-01T19:46:07.487Z,13.80
2023-05-01T19:48:34.276Z,13.72
2023-05-01T19:51:00.721Z,13.65
2023-05-01T19:53:31.147Z,13.59
2023-05-01T19:55:57.968Z,13.54
2023-05-01T19:58:26.674Z,13.48
2023-05-01T20:00:58.102Z,13.39
2023-05-01T20:03:24.781Z,13.34
2023-05-01T20:05:51.327Z,13.31
2023-05-01T20:08:17.814Z,13.31
2023-05-01T20:10:44.371Z,13.32
2023-05-01T20:13:11.104Z,13.32
2023-05-01T20:15:38.682Z,13.31
2023-05-01T20:18:06.067Z,13.29
2023-05-01T20:20:33.646Z,13.27
2023-05-01T20:23:17.632Z,13.29
2023-05-01T20:25:46.316Z,13.23
2023-05-01T20:28:14.773Z,13.21
2023-05-01T20:30:43.513Z,13.19
2023-05-01T20:33:10.751Z,13.21
2023-05-01T20:35:38.296Z,13.16
2023-05-01T20:38:04.885Z,13.16
2023-05-01T20:40:32.214Z,13.14
2023-05-01T20:42:59.862Z,13.17
2023-05-01T20:45:27.304Z,13.19
2023-05-01T20:47:53.923Z,13.24
2023-05-01T20:50:20.619Z,13.25
2023-05-01T20:52:47.202Z,13.27
2023-05-01T20:55:13.649Z,13.13
2023-05-01T20:57:40.205Z,13.07
2023-05-01T21:00:07.967Z,13.03
2023-05-01T21:02:38.016Z,13.04
2023-05-01T21:05:05.713Z,12.95
2023-05-01T21:07:32.195Z,12.91
2023-05-01T21:09:58.872Z,12.87
2023-05-01T21:12:25.638Z,12.87
2023-05-01T21:14:52.148Z,12.88
2023-05-01T21:17:19.041Z,12.80
2023-05-01T21:19:47.070Z,12.71
2023-05-01T21:22:16.336Z,12.66
2023-05-01T21:24:45.062Z,12.65
2023-05-01T21:27:12.398Z,12.67
2023-05-01T21:29:40.408Z,12.66
2023-05-01T21:32:08.441Z,12.62
2023-05-01T21:34:35.601Z,12.54
2023-05-01T21:37:02.171Z,12.55
2023-05-01T21:39:30.303Z,12.53
2023-05-01T21:41:56.744Z,12.50
2023-05-01T21:44:28.625Z,12.50
2023-05-01T21:46:56.382Z,12.55
2023-05-01T21:49:26.966Z,12.52
2023-05-01T21:51:54.044Z,12.51
2023-05-01T21:54:21.725Z,12.56
2023-05-01T21:56:48.539Z,12.58
2023-05-01T21:59:17.272Z,12.57
2023-05-01T22:01:44.708Z,12.57
2023-05-01T22:04:17.018Z,12.59
2023-05-01T22:06:43.623Z,12.59
2023-05-01T22:09:11.137Z,12.57
2023-05-01T22:11:37.571Z,12.60
2023-05-01T22:14:04.056Z,12.48
2023-05-01T22:16:30.529Z,12.41
2023-05-01T22:18:57.355Z,12.40
2023-05-01T22:21:23.790Z,12.32
2023-05-01T22:23:50.378Z,12.35
2023-05-01T22:26:16.818Z,12.38
2023-05-01T22:28:43.446Z,12.42
2023-05-01T22:31:09.935Z,12.37
2023-05-01T22:33:36.933Z,12.31
2023-05-01T22:36:06.019Z,12.27
2023-05-01T22:38:33.866Z,12.22
2023-05-01T22:41:00.308Z,12.18
2023-05-01T22:43:26.723Z,12.18
2023-05-01T22:45:53.164Z,12.16
2023-05-01T22:48:19.660Z,12.19
2023-05-01T22:50:46.217Z,12.13
2023-05-01T22:53:12.804Z,12.08
2023-05-01T22:55:39.219Z,12.06
2023-05-01T22:58:05.668Z,12.02
2023-05-01T23:00:32.306Z,11.96
2023-05-01T23:03:00.292Z,11.94
2023-05-01T23:05:26.788Z,11.91
2023-05-01T23:07:53.244Z,11.86
2023-05-01T23:10:23.059Z,11.85
2023-05-01T23:12:49.512Z,11.87
2023-05-01T23:15:22.397Z,11.82
2023-05-01T23:17:48.894Z,11.79
2023-05-01T23:20:22.524Z,11.81
2023-05-01T23:22:49.622Z,11.82
2023-05-01T23:25:25.479Z,11.87
2023-05-01T23:27:55.032Z,11.84
2023-05-01T23:30:22.247Z,11.81
2023-05-01T23:32:49.229Z,11.79
2023-05-01T23:35:20.897Z,11.79
2023-05-01T23:37:47.363Z,11.72
2023-05-01T23:40:13.798Z,11.68
2023-05-01T23:42:40.437Z,11.63
2023-05-01T23:45:08.114Z,11.60
2023-05-01T23:47:34.972Z,11.58
2023-05-01T23:50:02.101Z,11.57
2023-05-01T23:52:28.923Z,11.54
2023-05-01T23:54:55.611Z,11.57
2023-05-01T23:57:22.219Z,11.61
2023-05-01T23:59:48.661Z,11.60
